Richmond, KY

11:15 AM EST on February 14, 2016 (GMT -0500)
City Hall | | Change Station
CLOSE
Current Station
Personal Weather Station
Location: Richmond, KY
Elevation: 974 ft
Nearby Weather Stations
Active Advisory: Winter Storm Warning

Elev 974 ft 37.75 °N, 84.30 °W | Updated 14 seconds ago

Overcast
Overcast
18.9 °F
Feels Like 13 °F
N
4.0
Wind Variable Wind from North
Gusts 16.0 mph

Today
High -- | Low -- °F
--% Chance of Precip.
Yesterday
High -- | Low -- °F
Precip. -- in
Pressure 30.35 in
Visibility 7.0 miles
Clouds Scattered Clouds 3500 ft
Scattered Clouds 4100 ft
Overcast 6000 ft
Windchill 13 °F
Dew Point 9 °F
Humidity 65%
Rainfall 0.00 in
Snow Depth Not available.
7:28 AM 6:14 PM
Waxing Crescent, 43% visible
METAR KI39 141555Z AUTO 10010KT 7SM SCT035 SCT041 OVC060 M07/M14 A3035 RMK AO2
Pressure 30.35 in
Visibility 7.0 miles
Clouds Scattered Clouds 3500 ft
Scattered Clouds 4100 ft
Overcast 6000 ft
Windchill 13 °F
Dew Point 9 °F
Humidity 65%
Rainfall 0.00 in
Snow Depth Not available.
7:28 AM 6:14 PM
Waxing Crescent, 43% visible
METAR KI39 141555Z AUTO 10010KT 7SM SCT035 SCT041 OVC060 M07/M14 A3035 RMK AO2

10-Day Weather Forecast

Almanac

Astronomy

Feb. 14, 2016 Rise Set
Actual Time
Civil Twilight
Nautical Twilight
Astronomical Twilight
Moon
Length of Visible Light
Length of Day
Tomorrow will be .
, % of the Moon is Illuminated

Today's Extremes

State Highs State Lows

Community

WunderPhotos

Upload Photos

1,892,828 photos uploaded!

WunderBlog® & News

Nearby

Air Quality

  Air Quality AQ Index Pollutant
Not available.

Snow Depth

Station Depth Elevation

Earthquake Activity

City Distance Mag. Time & Date
Minimum magnitude displayed is 2.5.

Coastal Water Temperatures

Place Temperature

Stations

Nearby Weather Stations

Station Location Temp. Windchill Dew Point Humidity Wind Precip. Elev Updated Type
                   

Watches & Warnings

Winter Storm Warning
Issued: 3:11 AM CST Feb. 14, 2016 – National Weather Service

... Winter Storm Warning in effect from 10 am EST /9 am CST/ this
morning to 10 am EST /9 am CST/ Monday...

The National Weather Service in Louisville has issued a Winter
Storm Warning for snow... which is in effect from 10 am EST /9 am
CST/ this morning to 10 am EST /9 am CST/ Monday. The Winter
Weather Advisory is no longer in effect.

* Timing... light snow will begin Sunday morning... becoming
heavier Sunday afternoon and evening.

* Main impact... 3 to 5 inches of snow will be possible by late
Sunday night. Travel will become difficult at times this
afternoon and this evening.

* Other impacts... there is a chance of a brief period of
freezing drizzle late Sunday night before transitioning to
drizzle or rain Monday morning.

Precautionary/preparedness actions...

A Winter Storm Warning for snow means severe winter weather
conditions are expected or occurring. Significant amounts of snow
are forecast that will make travel dangerous.